Poplar Grove, Arkansas
Current Conditions -  °F | °C
As of 2:55 PM on Tuesday 21 Oct 2014 (Local Time) from KCKM Reporting Station
Clear Clear  
Wind Chill: 77°   Ceiling: Unl
Heat Index: 78°   Visibility: 10mi
Dew Point: 54°   Wind: 7mph
Humidity: 44%   Direction: 360°N
Pressure: 30.05"   Gusts: NA
Location:  34.55°N, 90.85°W
Report Text: KCKM 211955Z AUTO 36006KT 10SM CLR 25/12 A3005 RMK AO1
Loading
Personal Weather Stations






























Interactive Weather Map
Tropical Storm Tracking
New forecast layout! Learn more

10-Day Weather Forecast

Advertisements
Track Severe Weather on mobile